createdAt,value
2023-01-19T00:00:44.361Z,18.40
2023-01-19T00:03:16.280Z,18.37
2023-01-19T00:05:46.048Z,18.27
2023-01-19T00:08:18.800Z,20.40
2023-01-19T00:10:49.227Z,18.80
2023-01-19T00:13:19.269Z,19.47
2023-01-19T00:15:47.928Z,18.67
2023-01-19T00:18:16.167Z,19.10
2023-01-19T00:20:46.739Z,18.63
2023-01-19T00:23:15.698Z,20.00
2023-01-19T00:25:44.261Z,18.03
2023-01-19T00:28:15.707Z,17.83
2023-01-19T00:30:46.543Z,19.73
2023-01-19T00:33:15.223Z,18.57
2023-01-19T00:35:43.844Z,19.77
2023-01-19T00:38:12.865Z,18.93
2023-01-19T00:40:40.963Z,17.97
2023-01-19T00:43:09.095Z,20.40
2023-01-19T00:45:37.184Z,19.00
2023-01-19T00:48:07.465Z,19.50
2023-01-19T00:50:36.397Z,20.30
2023-01-19T00:53:04.826Z,19.30
2023-01-19T00:55:33.535Z,19.03
2023-01-19T00:58:02.838Z,19.73
2023-01-19T01:00:31.161Z,19.67
2023-01-19T01:02:59.866Z,20.27
2023-01-19T01:05:29.744Z,21.07
2023-01-19T01:07:57.822Z,21.60
2023-01-19T01:10:28.456Z,21.87
2023-01-19T01:12:58.137Z,20.90
2023-01-19T01:15:28.282Z,21.30
2023-01-19T01:17:56.704Z,21.00
2023-01-19T01:20:27.937Z,20.57
2023-01-19T01:22:58.606Z,22.10
2023-01-19T01:25:30.938Z,22.57
2023-01-19T01:27:59.050Z,22.40
2023-01-19T01:30:27.145Z,22.57
2023-01-19T01:32:55.821Z,22.10
2023-01-19T01:35:23.893Z,23.47
2023-01-19T01:37:51.978Z,24.73
2023-01-19T01:40:21.568Z,22.80
2023-01-19T01:42:49.613Z,23.80
2023-01-19T01:45:32.278Z,23.63
2023-01-19T01:48:07.452Z,23.50
2023-01-19T01:50:38.797Z,24.60
2023-01-19T01:53:12.781Z,23.60
2023-01-19T01:55:46.708Z,24.13
2023-01-19T01:58:15.972Z,23.77
2023-01-19T02:01:01.682Z,23.63
2023-01-19T02:03:32.322Z,23.53
2023-01-19T02:06:07.139Z,24.63
2023-01-19T02:08:56.930Z,24.27
2023-01-19T02:11:44.852Z,24.20
2023-01-19T02:14:13.146Z,24.53
2023-01-19T02:16:41.946Z,24.33
2023-01-19T02:19:13.702Z,23.37
2023-01-19T02:21:50.376Z,23.40
2023-01-19T02:24:20.126Z,24.40
2023-01-19T02:26:50.174Z,25.00
2023-01-19T02:29:20.971Z,25.10
2023-01-19T02:31:49.358Z,24.70
2023-01-19T02:34:19.932Z,25.33
2023-01-19T02:36:52.205Z,25.60
2023-01-19T02:39:26.186Z,25.77
2023-01-19T02:42:00.599Z,25.70
2023-01-19T02:44:30.467Z,24.60
2023-01-19T02:46:58.873Z,24.50
2023-01-19T02:49:30.018Z,23.00
2023-01-19T02:51:58.481Z,26.87
2023-01-19T02:54:51.958Z,24.90
2023-01-19T02:57:39.187Z,24.77
2023-01-19T03:00:22.870Z,29.87
2023-01-19T03:03:09.105Z,28.10
2023-01-19T03:05:51.709Z,36.10
2023-01-19T03:08:32.118Z,35.20
2023-01-19T03:11:04.394Z,37.13
2023-01-19T03:13:43.011Z,36.53
2023-01-19T03:16:17.233Z,37.40
2023-01-19T03:18:48.571Z,38.47
2023-01-19T03:21:19.576Z,41.20
2023-01-19T03:23:50.537Z,39.97
2023-01-19T03:26:25.436Z,37.17
2023-01-19T03:28:54.966Z,31.90
2023-01-19T03:31:26.173Z,30.37
2023-01-19T03:33:58.207Z,30.40
2023-01-19T03:36:31.885Z,25.83
2023-01-19T03:39:02.300Z,27.27
2023-01-19T03:41:34.210Z,26.20
2023-01-19T03:44:05.480Z,25.50
2023-01-19T03:46:34.965Z,25.27
2023-01-19T03:49:03.198Z,25.40
2023-01-19T03:51:31.612Z,24.33
2023-01-19T03:54:01.333Z,24.73
2023-01-19T03:56:30.793Z,24.83
2023-01-19T03:58:59.021Z,26.37
2023-01-19T04:01:27.628Z,25.07
2023-01-19T04:03:55.885Z,26.03
2023-01-19T04:06:24.336Z,23.13
2023-01-19T04:08:53.097Z,24.73
2023-01-19T04:11:21.239Z,24.30
2023-01-19T04:13:51.666Z,24.23
2023-01-19T04:16:21.183Z,23.57
2023-01-19T04:18:49.526Z,25.60
2023-01-19T04:21:17.988Z,25.73
2023-01-19T04:23:46.081Z,25.80
2023-01-19T04:26:14.805Z,25.43
2023-01-19T04:28:42.984Z,24.80
2023-01-19T04:31:12.640Z,25.93
2023-01-19T04:33:40.739Z,24.17
2023-01-19T04:36:09.656Z,25.27
2023-01-19T04:38:38.471Z,25.80
2023-01-19T04:41:06.793Z,25.33
2023-01-19T04:43:34.897Z,26.03
2023-01-19T04:46:02.920Z,26.70
2023-01-19T04:48:32.358Z,29.37
2023-01-19T04:51:00.350Z,28.67
2023-01-19T04:53:28.436Z,28.93
2023-01-19T04:55:56.920Z,29.83
2023-01-19T04:58:24.964Z,30.60
2023-01-19T05:00:53.228Z,30.60
2023-01-19T05:03:21.755Z,31.97
2023-01-19T05:05:51.187Z,28.83
2023-01-19T05:08:19.266Z,30.83
2023-01-19T05:10:47.406Z,32.00
2023-01-19T05:13:15.446Z,32.47
2023-01-19T05:15:43.640Z,31.30
2023-01-19T05:18:11.845Z,31.07
2023-01-19T05:20:41.214Z,30.80
2023-01-19T05:23:10.683Z,32.97
2023-01-19T05:25:38.688Z,32.67
2023-01-19T05:28:06.827Z,32.77
2023-01-19T05:30:34.928Z,34.10
2023-01-19T05:33:03.381Z,34.03
2023-01-19T05:35:36.262Z,33.10
2023-01-19T05:38:04.922Z,34.07
2023-01-19T05:40:34.447Z,34.67
2023-01-19T05:43:05.276Z,35.60
2023-01-19T05:45:34.091Z,32.83
2023-01-19T05:48:02.388Z,33.00
2023-01-19T05:50:30.434Z,31.60
2023-01-19T05:52:59.094Z,32.40
2023-01-19T05:55:28.267Z,33.30
2023-01-19T05:57:57.710Z,31.90
2023-01-19T06:00:27.683Z,31.80
2023-01-19T06:02:55.773Z,32.43
2023-01-19T06:05:23.961Z,31.07
2023-01-19T06:07:52.537Z,29.67
2023-01-19T06:10:20.767Z,30.83
2023-01-19T06:12:49.676Z,30.83
2023-01-19T06:15:19.453Z,29.33
2023-01-19T06:17:47.471Z,29.37
2023-01-19T06:20:15.917Z,29.37
2023-01-19T06:22:43.920Z,28.00
2023-01-19T06:25:13.009Z,30.60
2023-01-19T06:27:45.030Z,22.80
2023-01-19T06:30:14.893Z,28.73
2023-01-19T06:32:44.336Z,29.93
2023-01-19T06:35:13.342Z,28.50
2023-01-19T06:37:41.752Z,29.20
2023-01-19T06:40:13.628Z,27.50
2023-01-19T06:42:42.527Z,28.10
2023-01-19T06:45:11.623Z,27.83
2023-01-19T06:47:39.693Z,27.70
2023-01-19T06:50:10.565Z,27.63
2023-01-19T06:52:42.337Z,27.67
2023-01-19T06:55:11.971Z,29.03
2023-01-19T06:57:40.233Z,29.20
2023-01-19T07:00:11.676Z,28.80
2023-01-19T07:02:43.379Z,28.70
2023-01-19T07:05:14.420Z,27.27
2023-01-19T07:07:44.768Z,28.57
2023-01-19T07:10:15.605Z,27.33
2023-01-19T07:12:46.426Z,29.13
2023-01-19T07:15:14.944Z,27.80
2023-01-19T07:17:43.178Z,27.93
2023-01-19T07:20:14.412Z,30.63
2023-01-19T07:22:43.491Z,30.03
2023-01-19T07:25:11.606Z,29.03
2023-01-19T07:27:40.416Z,31.40
2023-01-19T07:30:09.885Z,30.60
2023-01-19T07:32:38.313Z,30.40
2023-01-19T07:35:06.936Z,31.87
2023-01-19T07:37:36.562Z,30.27
2023-01-19T07:40:05.822Z,31.33
2023-01-19T07:42:33.994Z,29.77
2023-01-19T07:45:02.162Z,32.77
2023-01-19T07:47:30.398Z,30.17
2023-01-19T07:49:58.464Z,30.20
2023-01-19T07:52:26.742Z,30.83
2023-01-19T07:54:56.140Z,30.73
2023-01-19T07:57:24.164Z,30.67
2023-01-19T07:59:52.139Z,31.27
2023-01-19T08:02:20.262Z,30.67
2023-01-19T08:04:49.154Z,30.10
2023-01-19T08:07:17.263Z,29.93
2023-01-19T08:09:45.592Z,31.27
2023-01-19T08:12:15.418Z,29.50
2023-01-19T08:14:43.572Z,29.33
2023-01-19T08:17:14.493Z,31.87
2023-01-19T08:19:43.983Z,31.97
2023-01-19T08:22:12.104Z,32.70
2023-01-19T08:24:40.219Z,33.30
2023-01-19T08:27:09.805Z,31.87
2023-01-19T08:29:39.511Z,32.73
2023-01-19T08:32:07.808Z,32.47
2023-01-19T08:34:36.066Z,33.07
2023-01-19T08:37:04.101Z,32.27
2023-01-19T08:39:32.161Z,31.93
2023-01-19T08:42:00.785Z,34.50
2023-01-19T08:44:29.045Z,34.27
2023-01-19T08:46:58.491Z,32.60
2023-01-19T08:49:26.667Z,32.70
2023-01-19T08:51:54.971Z,32.13
2023-01-19T08:54:24.215Z,32.83
2023-01-19T08:56:52.290Z,32.93
2023-01-19T08:59:21.567Z,33.67
2023-01-19T09:01:50.065Z,32.00
2023-01-19T09:04:19.901Z,31.73
2023-01-19T09:06:48.434Z,32.17
2023-01-19T09:09:16.615Z,29.57
2023-01-19T09:11:44.744Z,33.47
2023-01-19T09:14:13.028Z,31.50
2023-01-19T09:16:41.287Z,30.63
2023-01-19T09:19:09.314Z,37.03
2023-01-19T09:21:38.855Z,33.13
2023-01-19T09:24:07.310Z,32.10
2023-01-19T09:26:36.520Z,33.10
2023-01-19T09:29:04.594Z,32.07
2023-01-19T09:31:32.645Z,31.10
2023-01-19T09:34:00.649Z,30.53
2023-01-19T09:36:30.043Z,32.77
2023-01-19T09:38:59.490Z,32.30
2023-01-19T09:41:27.953Z,30.10
2023-01-19T09:43:59.006Z,31.60
2023-01-19T09:46:34.450Z,30.33
2023-01-19T09:49:06.745Z,33.40
2023-01-19T09:51:38.709Z,31.90
2023-01-19T09:54:14.470Z,32.33
2023-01-19T09:56:43.746Z,30.43
2023-01-19T09:59:30.475Z,32.43
2023-01-19T10:02:18.079Z,32.00
2023-01-19T10:04:58.128Z,32.83
2023-01-19T10:07:56.761Z,30.60
2023-01-19T10:10:28.186Z,31.40
2023-01-19T10:13:05.548Z,34.10
2023-01-19T10:15:46.394Z,31.00
2023-01-19T10:18:19.824Z,29.70
2023-01-19T10:20:52.126Z,27.83
2023-01-19T10:23:36.237Z,29.17
2023-01-19T10:26:10.220Z,30.50
2023-01-19T10:28:39.695Z,29.00
2023-01-19T10:31:09.654Z,28.10
2023-01-19T10:33:39.304Z,28.37
2023-01-19T10:36:17.554Z,27.70
2023-01-19T10:38:46.568Z,25.00
2023-01-19T10:41:20.411Z,25.43
2023-01-19T10:43:48.951Z,22.10
2023-01-19T10:46:24.396Z,23.03
2023-01-19T10:48:54.686Z,21.27
2023-01-19T10:51:23.308Z,21.70
2023-01-19T10:53:57.462Z,17.67
2023-01-19T10:56:30.615Z,18.50
2023-01-19T10:59:01.826Z,16.40
2023-01-19T11:01:31.579Z,17.40
2023-01-19T11:04:05.508Z,16.23
2023-01-19T11:06:35.704Z,13.93
2023-01-19T11:09:18.176Z,15.50
2023-01-19T11:11:50.573Z,14.10
2023-01-19T11:14:24.208Z,13.97
2023-01-19T11:16:55.904Z,11.53
2023-01-19T11:19:29.156Z,9.03
2023-01-19T11:22:12.018Z,8.87
2023-01-19T11:24:40.742Z,8.13
2023-01-19T11:27:10.909Z,11.17
2023-01-19T11:29:40.003Z,8.43
2023-01-19T11:32:13.884Z,9.43
2023-01-19T11:34:41.963Z,8.77
2023-01-19T11:37:30.204Z,8.73
2023-01-19T11:40:00.205Z,12.60
2023-01-19T11:42:33.937Z,13.83
2023-01-19T11:45:07.268Z,16.40
2023-01-19T11:47:42.487Z,10.50
2023-01-19T11:50:16.904Z,8.23
2023-01-19T11:52:49.534Z,7.30
2023-01-19T11:55:26.372Z,10.47
2023-01-19T11:57:56.321Z,9.90
2023-01-19T12:00:28.656Z,9.50
2023-01-19T12:03:01.717Z,8.23
2023-01-19T12:05:34.677Z,7.27
2023-01-19T12:08:08.169Z,8.77
2023-01-19T12:10:43.608Z,7.40
2023-01-19T12:13:21.584Z,8.87
2023-01-19T12:15:52.413Z,8.03
2023-01-19T12:18:24.009Z,8.73
2023-01-19T12:20:54.284Z,9.37
2023-01-19T12:23:32.610Z,11.83
2023-01-19T12:26:29.536Z,8.70
2023-01-19T12:29:04.893Z,11.30
2023-01-19T12:31:33.759Z,14.30
2023-01-19T12:34:31.378Z,11.90
2023-01-19T12:37:04.726Z,10.33
2023-01-19T12:39:34.007Z,11.90
2023-01-19T12:42:14.839Z,8.07
2023-01-19T12:44:46.248Z,9.60
2023-01-19T12:47:24.332Z,10.70
2023-01-19T12:49:56.480Z,11.20
2023-01-19T12:52:33.378Z,11.03
2023-01-19T12:55:06.261Z,12.77
2023-01-19T12:57:39.682Z,13.17
2023-01-19T13:00:35.312Z,8.07
2023-01-19T13:03:06.217Z,8.07
2023-01-19T13:05:58.266Z,9.07
2023-01-19T13:08:29.905Z,10.37
2023-01-19T13:11:23.823Z,10.47
2023-01-19T13:14:35.905Z,9.17
2023-01-19T13:17:26.878Z,11.43
2023-01-19T13:20:16.075Z,10.30
2023-01-19T13:23:11.914Z,12.03
2023-01-19T13:25:40.120Z,9.23
2023-01-19T13:28:12.090Z,13.60
2023-01-19T13:30:58.996Z,8.80
2023-01-19T13:33:38.047Z,11.90
2023-01-19T13:36:20.542Z,8.97
2023-01-19T13:38:49.511Z,7.70
2023-01-19T13:41:20.278Z,11.80
2023-01-19T13:43:50.791Z,11.20
2023-01-19T13:46:20.116Z,9.30
2023-01-19T13:48:56.902Z,9.20
2023-01-19T13:51:24.943Z,6.23
2023-01-19T13:53:56.766Z,6.27
2023-01-19T13:56:27.800Z,10.33
2023-01-19T13:59:09.640Z,8.13
2023-01-19T14:01:39.722Z,12.80
2023-01-19T14:04:26.492Z,9.23
2023-01-19T14:06:55.925Z,8.03
2023-01-19T14:09:24.256Z,8.40
2023-01-19T14:12:08.503Z,6.83
2023-01-19T14:14:36.641Z,7.07
2023-01-19T14:17:04.882Z,6.60
2023-01-19T14:19:52.974Z,7.70
2023-01-19T14:22:21.086Z,10.90
2023-01-19T14:24:50.316Z,6.87
2023-01-19T14:27:21.618Z,7.90
2023-01-19T14:29:53.714Z,8.53
2023-01-19T14:32:24.120Z,8.53
2023-01-19T14:35:12.619Z,10.20
2023-01-19T14:37:48.484Z,11.23
2023-01-19T14:40:20.011Z,6.80
2023-01-19T14:42:53.921Z,12.93
2023-01-19T14:45:24.824Z,9.97
2023-01-19T14:47:59.597Z,9.77
2023-01-19T14:50:33.415Z,10.60
2023-01-19T14:53:05.010Z,10.20
2023-01-19T14:55:37.280Z,8.80
2023-01-19T14:58:11.816Z,8.27
2023-01-19T15:00:40.418Z,8.80
2023-01-19T15:03:09.861Z,11.17
2023-01-19T15:05:39.818Z,6.67
2023-01-19T15:08:08.496Z,6.83
2023-01-19T15:10:37.167Z,5.30
2023-01-19T15:13:05.594Z,5.00
2023-01-19T15:15:35.586Z,6.53
2023-01-19T15:18:05.927Z,5.53
2023-01-19T15:20:34.049Z,4.00
2023-01-19T15:23:03.553Z,6.40
2023-01-19T15:25:31.852Z,5.00
2023-01-19T15:28:00.662Z,5.63
2023-01-19T15:30:31.290Z,4.57
2023-01-19T15:32:59.952Z,6.90
2023-01-19T15:35:28.047Z,4.57
2023-01-19T15:37:56.110Z,5.43
2023-01-19T15:40:25.565Z,7.20
2023-01-19T15:42:53.678Z,7.30
2023-01-19T15:45:36.876Z,6.37
2023-01-19T15:48:06.419Z,8.53
2023-01-19T15:50:36.655Z,6.10
2023-01-19T15:53:04.973Z,7.90
2023-01-19T15:55:34.453Z,8.43
2023-01-19T15:58:02.667Z,8.60
2023-01-19T16:00:31.673Z,7.03
2023-01-19T16:03:00.456Z,6.00
2023-01-19T16:05:41.903Z,9.37
2023-01-19T16:08:10.877Z,8.87
2023-01-19T16:10:40.595Z,10.13
2023-01-19T16:13:08.751Z,8.73
2023-01-19T16:15:37.585Z,7.37
2023-01-19T16:18:06.923Z,9.43
2023-01-19T16:20:35.308Z,7.70
2023-01-19T16:23:14.426Z,13.47
2023-01-19T16:25:44.729Z,10.70
2023-01-19T16:28:13.071Z,7.83
2023-01-19T16:30:41.208Z,8.73
2023-01-19T16:33:11.639Z,10.77
2023-01-19T16:35:40.344Z,9.47
2023-01-19T16:38:09.380Z,10.70
2023-01-19T16:40:37.882Z,13.67
2023-01-19T16:43:07.394Z,9.10
2023-01-19T16:45:35.642Z,9.20
2023-01-19T16:48:03.766Z,13.97
2023-01-19T16:50:31.942Z,7.13
2023-01-19T16:53:00.168Z,9.10
2023-01-19T16:55:28.282Z,8.07
2023-01-19T16:57:56.803Z,7.50
2023-01-19T17:00:26.376Z,9.50
2023-01-19T17:02:54.517Z,8.83
2023-01-19T17:05:24.270Z,10.33
2023-01-19T17:07:52.521Z,12.77
2023-01-19T17:10:20.793Z,7.17
2023-01-19T17:12:48.895Z,10.00
2023-01-19T17:15:17.095Z,8.17
2023-01-19T17:17:46.575Z,7.73
2023-01-19T17:20:14.939Z,5.60
2023-01-19T17:22:42.991Z,7.90
2023-01-19T17:25:11.212Z,9.10
2023-01-19T17:27:39.276Z,7.63
2023-01-19T17:30:08.250Z,13.00
2023-01-19T17:32:36.883Z,10.13
2023-01-19T17:35:07.272Z,7.67
2023-01-19T17:37:35.663Z,10.60
2023-01-19T17:40:04.165Z,8.50
2023-01-19T17:42:32.251Z,9.93
2023-01-19T17:45:00.333Z,7.67
2023-01-19T17:47:28.440Z,9.50
2023-01-19T17:49:56.494Z,8.70
2023-01-19T17:52:26.004Z,8.03
2023-01-19T17:54:54.109Z,12.03
2023-01-19T17:57:22.250Z,10.60
2023-01-19T17:59:50.299Z,11.70
2023-01-19T18:02:18.472Z,11.70
2023-01-19T18:04:46.677Z,7.10
2023-01-19T18:07:14.813Z,7.80
2023-01-19T18:09:44.246Z,9.53
2023-01-19T18:12:12.494Z,9.10
2023-01-19T18:14:41.326Z,10.00
2023-01-19T18:17:09.475Z,9.67
2023-01-19T18:19:37.595Z,9.37
2023-01-19T18:22:05.738Z,10.17
2023-01-19T18:24:33.902Z,10.20
2023-01-19T18:27:03.433Z,10.00
2023-01-19T18:29:31.526Z,10.93
2023-01-19T18:31:59.709Z,8.90
2023-01-19T18:34:28.090Z,10.70
2023-01-19T18:36:56.414Z,10.00
2023-01-19T18:39:24.722Z,7.83
2023-01-19T18:41:52.842Z,7.33
2023-01-19T18:44:23.191Z,8.93
2023-01-19T18:46:52.160Z,6.47
2023-01-19T18:49:20.275Z,6.57
2023-01-19T18:51:48.358Z,9.93
2023-01-19T18:54:17.488Z,6.67
2023-01-19T18:56:45.664Z,8.93
2023-01-19T18:59:13.782Z,7.20
2023-01-19T19:01:43.253Z,9.23
2023-01-19T19:04:11.473Z,7.10
2023-01-19T19:06:39.588Z,12.10
2023-01-19T19:09:07.699Z,6.50
2023-01-19T19:11:36.457Z,5.77
2023-01-19T19:14:05.076Z,7.27
2023-01-19T19:16:36.183Z,10.40
2023-01-19T19:19:07.238Z,8.70
2023-01-19T19:21:35.437Z,8.60
2023-01-19T19:24:03.539Z,10.67
2023-01-19T19:26:31.872Z,7.57
2023-01-19T19:29:01.028Z,9.10
2023-01-19T19:31:30.572Z,9.43
2023-01-19T19:34:00.130Z,11.00
2023-01-19T19:36:32.002Z,9.37
2023-01-19T19:39:00.466Z,11.80
2023-01-19T19:41:29.997Z,9.30
2023-01-19T19:43:58.041Z,8.63
2023-01-19T19:46:27.650Z,6.40
2023-01-19T19:48:55.886Z,6.77
2023-01-19T19:51:26.967Z,9.97
2023-01-19T19:53:58.674Z,6.90
2023-01-19T19:56:29.183Z,10.73
2023-01-19T19:58:59.058Z,12.20
2023-01-19T20:01:32.074Z,7.60
2023-01-19T20:04:06.391Z,8.60
2023-01-19T20:06:38.725Z,8.50
2023-01-19T20:09:10.157Z,8.70
2023-01-19T20:11:38.485Z,13.10
2023-01-19T20:14:07.563Z,9.33
2023-01-19T20:16:35.917Z,6.50
2023-01-19T20:19:04.548Z,10.13
2023-01-19T20:21:34.381Z,6.87
2023-01-19T20:24:04.620Z,5.63
2023-01-19T20:26:36.477Z,10.90
2023-01-19T20:29:07.195Z,7.80
2023-01-19T20:31:37.840Z,7.87
2023-01-19T20:34:08.184Z,9.07
2023-01-19T20:36:36.550Z,11.30
2023-01-19T20:39:09.479Z,8.10
2023-01-19T20:41:44.916Z,8.57
2023-01-19T20:44:14.565Z,8.10
2023-01-19T20:46:43.255Z,6.23
2023-01-19T20:49:11.378Z,9.33
2023-01-19T20:51:43.234Z,9.00
2023-01-19T20:54:23.619Z,7.43
2023-01-19T20:56:53.261Z,8.73
2023-01-19T20:59:21.935Z,10.40
2023-01-19T21:01:50.987Z,9.20
2023-01-19T21:04:19.405Z,6.40
2023-01-19T21:06:48.189Z,6.23
2023-01-19T21:09:16.412Z,7.67
2023-01-19T21:11:44.647Z,6.13
2023-01-19T21:14:14.419Z,9.03
2023-01-19T21:16:42.741Z,8.70
2023-01-19T21:19:11.919Z,7.37
2023-01-19T21:21:40.085Z,9.40
2023-01-19T21:24:11.251Z,7.20
2023-01-19T21:26:41.752Z,6.50
2023-01-19T21:29:13.328Z,5.93
2023-01-19T21:31:43.328Z,7.67
2023-01-19T21:34:12.074Z,11.10
2023-01-19T21:36:40.109Z,6.50
2023-01-19T21:39:09.011Z,7.10
2023-01-19T21:41:39.736Z,7.20
2023-01-19T21:44:08.072Z,8.03
2023-01-19T21:46:36.221Z,9.07
2023-01-19T21:49:07.938Z,9.17
2023-01-19T21:51:37.637Z,8.20
2023-01-19T21:54:07.653Z,9.63
2023-01-19T21:56:37.896Z,12.63
2023-01-19T21:59:08.433Z,11.73
2023-01-19T22:01:36.860Z,13.90
2023-01-19T22:04:06.530Z,12.00
2023-01-19T22:06:34.791Z,18.47
2023-01-19T22:09:03.249Z,14.03
2023-01-19T22:11:31.417Z,19.20
2023-01-19T22:14:00.858Z,19.73
2023-01-19T22:16:30.082Z,14.47
2023-01-19T22:19:01.022Z,18.23
2023-01-19T22:21:32.077Z,18.10
2023-01-19T22:24:01.475Z,17.33
2023-01-19T22:26:31.472Z,18.80
2023-01-19T22:29:01.549Z,20.90
2023-01-19T22:31:30.671Z,19.30
2023-01-19T22:33:59.732Z,24.07
2023-01-19T22:36:31.063Z,18.90
2023-01-19T22:39:01.200Z,22.87
2023-01-19T22:41:30.928Z,24.40
2023-01-19T22:44:00.549Z,20.47
2023-01-19T22:46:31.267Z,21.57
2023-01-19T22:49:00.183Z,21.07
2023-01-19T22:51:31.719Z,22.33
2023-01-19T22:54:00.167Z,22.77
2023-01-19T22:56:30.125Z,22.83
2023-01-19T22:58:59.705Z,25.47
2023-01-19T23:01:29.145Z,23.57
2023-01-19T23:03:57.626Z,23.40
2023-01-19T23:06:27.139Z,24.17
2023-01-19T23:08:58.217Z,26.87
2023-01-19T23:11:28.199Z,26.53
2023-01-19T23:13:57.165Z,23.80
2023-01-19T23:16:25.492Z,25.57
2023-01-19T23:18:54.986Z,25.40
2023-01-19T23:21:24.792Z,25.53
2023-01-19T23:23:56.193Z,27.30
2023-01-19T23:26:25.678Z,29.13
2023-01-19T23:28:56.687Z,25.57
2023-01-19T23:31:27.091Z,26.37
2023-01-19T23:33:57.169Z,30.70
2023-01-19T23:36:27.008Z,26.50
2023-01-19T23:38:58.878Z,28.60
2023-01-19T23:41:28.878Z,28.10
2023-01-19T23:43:57.104Z,28.10
2023-01-19T23:46:25.436Z,28.03
2023-01-19T23:48:53.836Z,28.70
2023-01-19T23:51:24.098Z,29.13
2023-01-19T23:53:52.686Z,31.37
2023-01-19T23:56:24.181Z,31.70
2023-01-19T23:58:55.401Z,31.40
